sensor_id;sensor_type;location;lat;lon;timestamp;P1;durP1;ratioP1;P2;durP2;ratioP2
51854;SDS011;37895;53.240;6.572;2024-03-07T00:01:35;24.77;;;22.38;;
51854;SDS011;37895;53.240;6.572;2024-03-07T00:04:02;25.67;;;21.55;;
51854;SDS011;37895;53.240;6.572;2024-03-07T00:06:28;23.73;;;21.30;;
51854;SDS011;37895;53.240;6.572;2024-03-07T00:08:53;24.05;;;21.10;;
51854;SDS011;37895;53.240;6.572;2024-03-07T00:11:20;23.73;;;21.40;;
51854;SDS011;37895;53.240;6.572;2024-03-07T00:13:45;22.88;;;20.55;;
51854;SDS011;37895;53.240;6.572;2024-03-07T00:16:11;23.48;;;21.02;;
51854;SDS011;37895;53.240;6.572;2024-03-07T00:18:36;22.90;;;20.50;;
51854;SDS011;37895;53.240;6.572;2024-03-07T00:21:03;24.83;;;21.63;;
51854;SDS011;37895;53.240;6.572;2024-03-07T00:23:29;23.58;;;21.13;;
51854;SDS011;37895;53.240;6.572;2024-03-07T00:25:56;22.80;;;20.50;;
51854;SDS011;37895;53.240;6.572;2024-03-07T00:28:23;24.30;;;20.35;;
51854;SDS011;37895;53.240;6.572;2024-03-07T00:30:54;23.13;;;20.63;;
51854;SDS011;37895;53.240;6.572;2024-03-07T00:33:20;22.83;;;20.52;;
51854;SDS011;37895;53.240;6.572;2024-03-07T00:35:47;23.70;;;21.40;;
51854;SDS011;37895;53.240;6.572;2024-03-07T00:38:12;23.65;;;21.33;;
51854;SDS011;37895;53.240;6.572;2024-03-07T00:40:38;23.60;;;20.50;;
51854;SDS011;37895;53.240;6.572;2024-03-07T00:43:03;23.58;;;21.27;;
51854;SDS011;37895;53.240;6.572;2024-03-07T00:45:30;22.50;;;20.15;;
51854;SDS011;37895;53.240;6.572;2024-03-07T00:47:57;23.35;;;20.88;;
51854;SDS011;37895;53.240;6.572;2024-03-07T00:50:23;22.23;;;19.95;;
51854;SDS011;37895;53.240;6.572;2024-03-07T00:52:50;23.15;;;20.25;;
51854;SDS011;37895;53.240;6.572;2024-03-07T00:55:16;23.27;;;20.88;;
51854;SDS011;37895;53.240;6.572;2024-03-07T00:57:41;22.92;;;20.50;;
51854;SDS011;37895;53.240;6.572;2024-03-07T01:00:07;24.20;;;21.17;;
51854;SDS011;37895;53.240;6.572;2024-03-07T01:02:42;23.75;;;21.35;;
51854;SDS011;37895;53.240;6.572;2024-03-07T01:05:11;22.73;;;20.52;;
51854;SDS011;37895;53.240;6.572;2024-03-07T01:07:38;22.98;;;20.50;;
51854;SDS011;37895;53.240;6.572;2024-03-07T01:10:05;23.42;;;21.00;;
51854;SDS011;37895;53.240;6.572;2024-03-07T01:14:59;23.52;;;21.10;;
51854;SDS011;37895;53.240;6.572;2024-03-07T01:19:51;22.48;;;20.17;;
51854;SDS011;37895;53.240;6.572;2024-03-07T01:22:17;22.90;;;20.50;;
51854;SDS011;37895;53.240;6.572;2024-03-07T01:24:42;25.20;;;21.58;;
51854;SDS011;37895;53.240;6.572;2024-03-07T01:27:08;22.13;;;19.80;;
51854;SDS011;37895;53.240;6.572;2024-03-07T01:29:34;24.23;;;21.33;;
51854;SDS011;37895;53.240;6.572;2024-03-07T01:32:00;22.92;;;20.60;;
51854;SDS011;37895;53.240;6.572;2024-03-07T01:34:26;23.63;;;21.23;;
51854;SDS011;37895;53.240;6.572;2024-03-07T01:36:52;23.70;;;21.23;;
51854;SDS011;37895;53.240;6.572;2024-03-07T01:39:17;22.80;;;20.50;;
51854;SDS011;37895;53.240;6.572;2024-03-07T01:41:43;22.73;;;20.35;;
51854;SDS011;37895;53.240;6.572;2024-03-07T01:44:09;23.98;;;21.48;;
51854;SDS011;37895;53.240;6.572;2024-03-07T01:46:35;26.38;;;22.45;;
51854;SDS011;37895;53.240;6.572;2024-03-07T01:49:00;24.08;;;21.33;;
51854;SDS011;37895;53.240;6.572;2024-03-07T01:51:26;22.77;;;20.38;;
51854;SDS011;37895;53.240;6.572;2024-03-07T01:53:52;22.65;;;20.25;;
51854;SDS011;37895;53.240;6.572;2024-03-07T01:56:18;23.67;;;21.23;;
51854;SDS011;37895;53.240;6.572;2024-03-07T01:58:46;24.17;;;21.77;;
51854;SDS011;37895;53.240;6.572;2024-03-07T02:01:12;24.42;;;21.85;;
51854;SDS011;37895;53.240;6.572;2024-03-07T02:03:40;25.45;;;22.70;;
51854;SDS011;37895;53.240;6.572;2024-03-07T02:06:07;25.27;;;22.60;;
51854;SDS011;37895;53.240;6.572;2024-03-07T02:08:34;23.58;;;21.13;;
51854;SDS011;37895;53.240;6.572;2024-03-07T02:11:00;24.50;;;21.92;;
51854;SDS011;37895;53.240;6.572;2024-03-07T02:13:26;24.70;;;22.10;;
51854;SDS011;37895;53.240;6.572;2024-03-07T02:15:52;24.05;;;21.65;;
51854;SDS011;37895;53.240;6.572;2024-03-07T02:20:45;25.75;;;23.10;;
51854;SDS011;37895;53.240;6.572;2024-03-07T02:23:13;24.08;;;21.58;;
51854;SDS011;37895;53.240;6.572;2024-03-07T02:25:39;26.85;;;22.60;;
51854;SDS011;37895;53.240;6.572;2024-03-07T02:28:05;25.48;;;22.77;;
51854;SDS011;37895;53.240;6.572;2024-03-07T02:30:31;24.98;;;22.50;;
51854;SDS011;37895;53.240;6.572;2024-03-07T02:33:00;25.10;;;22.65;;
51854;SDS011;37895;53.240;6.572;2024-03-07T02:35:34;25.83;;;23.08;;
51854;SDS011;37895;53.240;6.572;2024-03-07T02:38:03;25.35;;;21.98;;
51854;SDS011;37895;53.240;6.572;2024-03-07T02:40:30;26.50;;;23.80;;
51854;SDS011;37895;53.240;6.572;2024-03-07T02:42:57;25.52;;;22.95;;
51854;SDS011;37895;53.240;6.572;2024-03-07T02:45:23;23.52;;;21.13;;
51854;SDS011;37895;53.240;6.572;2024-03-07T02:47:49;23.38;;;20.88;;
51854;SDS011;37895;53.240;6.572;2024-03-07T02:50:14;24.70;;;22.08;;
51854;SDS011;37895;53.240;6.572;2024-03-07T02:52:40;23.88;;;21.38;;
51854;SDS011;37895;53.240;6.572;2024-03-07T02:55:06;24.05;;;21.75;;
51854;SDS011;37895;53.240;6.572;2024-03-07T02:57:35;24.63;;;22.05;;
51854;SDS011;37895;53.240;6.572;2024-03-07T03:00:02;24.27;;;21.88;;
51854;SDS011;37895;53.240;6.572;2024-03-07T03:02:38;24.50;;;22.00;;
51854;SDS011;37895;53.240;6.572;2024-03-07T03:05:04;24.25;;;21.73;;
51854;SDS011;37895;53.240;6.572;2024-03-07T03:07:33;24.05;;;21.55;;
51854;SDS011;37895;53.240;6.572;2024-03-07T03:09:58;26.98;;;24.27;;
51854;SDS011;37895;53.240;6.572;2024-03-07T03:12:24;27.48;;;23.80;;
51854;SDS011;37895;53.240;6.572;2024-03-07T03:14:50;25.77;;;23.17;;
51854;SDS011;37895;53.240;6.572;2024-03-07T03:17:18;24.85;;;22.08;;
51854;SDS011;37895;53.240;6.572;2024-03-07T03:19:44;25.63;;;23.05;;
51854;SDS011;37895;53.240;6.572;2024-03-07T03:22:10;25.50;;;22.77;;
51854;SDS011;37895;53.240;6.572;2024-03-07T03:24:36;26.38;;;23.75;;
51854;SDS011;37895;53.240;6.572;2024-03-07T03:27:02;25.80;;;23.20;;
51854;SDS011;37895;53.240;6.572;2024-03-07T03:29:28;30.05;;;23.65;;
51854;SDS011;37895;53.240;6.572;2024-03-07T03:31:54;29.50;;;23.95;;
51854;SDS011;37895;53.240;6.572;2024-03-07T03:34:21;26.58;;;23.60;;
51854;SDS011;37895;53.240;6.572;2024-03-07T03:36:47;27.88;;;24.92;;
51854;SDS011;37895;53.240;6.572;2024-03-07T03:39:12;28.75;;;25.75;;
51854;SDS011;37895;53.240;6.572;2024-03-07T03:41:38;25.83;;;23.13;;
51854;SDS011;37895;53.240;6.572;2024-03-07T03:44:04;27.23;;;24.40;;
51854;SDS011;37895;53.240;6.572;2024-03-07T03:46:31;27.52;;;24.75;;
51854;SDS011;37895;53.240;6.572;2024-03-07T03:48:56;26.27;;;23.50;;
51854;SDS011;37895;53.240;6.572;2024-03-07T03:51:23;28.63;;;25.63;;
51854;SDS011;37895;53.240;6.572;2024-03-07T03:53:50;27.08;;;24.35;;
51854;SDS011;37895;53.240;6.572;2024-03-07T03:56:16;27.50;;;24.65;;
51854;SDS011;37895;53.240;6.572;2024-03-07T03:58:42;27.65;;;24.83;;
51854;SDS011;37895;53.240;6.572;2024-03-07T04:01:08;30.35;;;26.55;;
51854;SDS011;37895;53.240;6.572;2024-03-07T04:03:38;29.73;;;26.63;;
51854;SDS011;37895;53.240;6.572;2024-03-07T04:06:04;28.08;;;25.20;;
51854;SDS011;37895;53.240;6.572;2024-03-07T04:08:30;29.13;;;25.92;;
51854;SDS011;37895;53.240;6.572;2024-03-07T04:10:55;28.60;;;25.80;;
51854;SDS011;37895;53.240;6.572;2024-03-07T04:13:21;29.77;;;26.77;;
51854;SDS011;37895;53.240;6.572;2024-03-07T04:15:47;35.78;;;27.27;;
51854;SDS011;37895;53.240;6.572;2024-03-07T04:18:13;30.48;;;26.65;;
51854;SDS011;37895;53.240;6.572;2024-03-07T04:20:38;29.58;;;26.52;;
51854;SDS011;37895;53.240;6.572;2024-03-07T04:23:04;29.42;;;26.42;;
51854;SDS011;37895;53.240;6.572;2024-03-07T04:27:57;29.55;;;26.48;;
51854;SDS011;37895;53.240;6.572;2024-03-07T04:30:23;30.02;;;26.92;;
51854;SDS011;37895;53.240;6.572;2024-03-07T04:32:49;30.45;;;27.38;;
51854;SDS011;37895;53.240;6.572;2024-03-07T04:35:14;31.73;;;28.30;;
51854;SDS011;37895;53.240;6.572;2024-03-07T04:37:40;31.27;;;28.08;;
51854;SDS011;37895;53.240;6.572;2024-03-07T04:40:07;32.35;;;28.92;;
51854;SDS011;37895;53.240;6.572;2024-03-07T04:42:44;31.52;;;28.17;;
51854;SDS011;37895;53.240;6.572;2024-03-07T04:45:11;30.92;;;27.70;;
51854;SDS011;37895;53.240;6.572;2024-03-07T04:47:38;33.50;;;29.98;;
51854;SDS011;37895;53.240;6.572;2024-03-07T04:50:05;29.58;;;26.48;;
51854;SDS011;37895;53.240;6.572;2024-03-07T04:52:31;34.30;;;30.63;;
51854;SDS011;37895;53.240;6.572;2024-03-07T04:57:23;32.78;;;29.38;;
51854;SDS011;37895;53.240;6.572;2024-03-07T04:59:48;34.03;;;30.42;;
51854;SDS011;37895;53.240;6.572;2024-03-07T05:02:14;33.03;;;29.63;;
51854;SDS011;37895;53.240;6.572;2024-03-07T05:04:40;31.90;;;28.60;;
51854;SDS011;37895;53.240;6.572;2024-03-07T05:07:06;34.22;;;30.63;;
51854;SDS011;37895;53.240;6.572;2024-03-07T05:09:32;34.40;;;30.58;;
51854;SDS011;37895;53.240;6.572;2024-03-07T05:11:58;30.65;;;27.48;;
51854;SDS011;37895;53.240;6.572;2024-03-07T05:14:24;36.20;;;32.35;;
51854;SDS011;37895;53.240;6.572;2024-03-07T05:16:52;36.03;;;32.13;;
51854;SDS011;37895;53.240;6.572;2024-03-07T05:19:31;35.20;;;31.50;;
51854;SDS011;37895;53.240;6.572;2024-03-07T05:21:57;37.08;;;33.05;;
51854;SDS011;37895;53.240;6.572;2024-03-07T05:24:23;38.83;;;34.65;;
51854;SDS011;37895;53.240;6.572;2024-03-07T05:26:49;38.63;;;34.53;;
51854;SDS011;37895;53.240;6.572;2024-03-07T05:29:14;39.75;;;35.30;;
51854;SDS011;37895;53.240;6.572;2024-03-07T05:31:42;42.33;;;36.63;;
51854;SDS011;37895;53.240;6.572;2024-03-07T05:34:15;40.38;;;35.95;;
51854;SDS011;37895;53.240;6.572;2024-03-07T05:36:44;45.03;;;37.58;;
51854;SDS011;37895;53.240;6.572;2024-03-07T05:39:12;41.28;;;36.47;;
51854;SDS011;37895;53.240;6.572;2024-03-07T05:41:40;43.35;;;38.13;;
51854;SDS011;37895;53.240;6.572;2024-03-07T05:44:06;41.78;;;37.25;;
51854;SDS011;37895;53.240;6.572;2024-03-07T05:46:36;43.72;;;38.33;;
51854;SDS011;37895;53.240;6.572;2024-03-07T05:49:06;43.67;;;38.88;;
51854;SDS011;37895;53.240;6.572;2024-03-07T05:51:34;44.33;;;39.40;;
51854;SDS011;37895;53.240;6.572;2024-03-07T05:54:01;50.65;;;42.38;;
51854;SDS011;37895;53.240;6.572;2024-03-07T05:56:27;46.40;;;40.60;;
51854;SDS011;37895;53.240;6.572;2024-03-07T05:58:53;51.33;;;43.47;;
51854;SDS011;37895;53.240;6.572;2024-03-07T06:01:18;53.45;;;44.85;;
51854;SDS011;37895;53.240;6.572;2024-03-07T06:03:44;51.63;;;43.42;;
51854;SDS011;37895;53.240;6.572;2024-03-07T06:08:37;61.28;;;47.88;;
51854;SDS011;37895;53.240;6.572;2024-03-07T06:11:07;58.45;;;48.45;;
51854;SDS011;37895;53.240;6.572;2024-03-07T06:13:33;58.10;;;47.15;;
51854;SDS011;37895;53.240;6.572;2024-03-07T06:15:58;63.05;;;50.10;;
51854;SDS011;37895;53.240;6.572;2024-03-07T06:18:29;66.47;;;50.88;;
51854;SDS011;37895;53.240;6.572;2024-03-07T06:20:56;77.03;;;54.90;;
51854;SDS011;37895;53.240;6.572;2024-03-07T06:23:22;84.30;;;59.60;;
51854;SDS011;37895;53.240;6.572;2024-03-07T06:25:47;79.50;;;57.28;;
51854;SDS011;37895;53.240;6.572;2024-03-07T06:28:16;68.72;;;53.75;;
51854;SDS011;37895;53.240;6.572;2024-03-07T06:33:12;92.82;;;59.72;;
51854;SDS011;37895;53.240;6.572;2024-03-07T06:35:38;96.97;;;59.75;;
51854;SDS011;37895;53.240;6.572;2024-03-07T06:40:31;186.52;;;66.75;;
51854;SDS011;37895;53.240;6.572;2024-03-07T06:42:58;82.95;;;58.25;;
51854;SDS011;37895;53.240;6.572;2024-03-07T06:45:24;119.35;;;64.25;;
51854;SDS011;37895;53.240;6.572;2024-03-07T06:47:50;130.13;;;67.95;;
51854;SDS011;37895;53.240;6.572;2024-03-07T06:50:17;107.57;;;63.80;;
51854;SDS011;37895;53.240;6.572;2024-03-07T06:52:47;120.40;;;67.07;;
51854;SDS011;37895;53.240;6.572;2024-03-07T06:55:14;96.38;;;62.53;;
51854;SDS011;37895;53.240;6.572;2024-03-07T06:57:42;136.77;;;73.03;;
51854;SDS011;37895;53.240;6.572;2024-03-07T07:00:08;89.22;;;61.13;;
51854;SDS011;37895;53.240;6.572;2024-03-07T07:02:39;101.22;;;63.75;;
51854;SDS011;37895;53.240;6.572;2024-03-07T07:07:37;107.90;;;64.45;;
51854;SDS011;37895;53.240;6.572;2024-03-07T07:10:04;88.18;;;59.80;;
51854;SDS011;37895;53.240;6.572;2024-03-07T07:12:32;81.22;;;58.05;;
51854;SDS011;37895;53.240;6.572;2024-03-07T07:14:58;108.63;;;63.78;;
51854;SDS011;37895;53.240;6.572;2024-03-07T07:17:24;99.93;;;62.75;;
51854;SDS011;37895;53.240;6.572;2024-03-07T07:19:50;92.75;;;61.20;;
51854;SDS011;37895;53.240;6.572;2024-03-07T07:22:17;121.35;;;62.85;;
51854;SDS011;37895;53.240;6.572;2024-03-07T07:24:43;96.60;;;62.97;;
51854;SDS011;37895;53.240;6.572;2024-03-07T07:27:09;108.60;;;62.95;;
51854;SDS011;37895;53.240;6.572;2024-03-07T07:29:38;80.68;;;55.75;;
51854;SDS011;37895;53.240;6.572;2024-03-07T07:32:04;76.05;;;56.70;;
51854;SDS011;37895;53.240;6.572;2024-03-07T07:34:30;97.32;;;60.42;;
51854;SDS011;37895;53.240;6.572;2024-03-07T07:36:55;196.07;;;66.80;;
51854;SDS011;37895;53.240;6.572;2024-03-07T07:39:22;112.32;;;61.67;;
51854;SDS011;37895;53.240;6.572;2024-03-07T07:41:47;94.40;;;59.08;;
51854;SDS011;37895;53.240;6.572;2024-03-07T07:44:13;110.38;;;58.78;;
51854;SDS011;37895;53.240;6.572;2024-03-07T07:46:39;75.57;;;55.83;;
51854;SDS011;37895;53.240;6.572;2024-03-07T07:49:05;75.32;;;55.60;;
51854;SDS011;37895;53.240;6.572;2024-03-07T07:51:31;117.93;;;58.50;;
51854;SDS011;37895;53.240;6.572;2024-03-07T07:53:57;82.38;;;55.47;;
51854;SDS011;37895;53.240;6.572;2024-03-07T07:56:23;72.97;;;54.28;;
51854;SDS011;37895;53.240;6.572;2024-03-07T07:58:49;88.18;;;58.42;;
51854;SDS011;37895;53.240;6.572;2024-03-07T08:01:16;78.40;;;54.10;;
51854;SDS011;37895;53.240;6.572;2024-03-07T08:03:42;99.65;;;62.25;;
51854;SDS011;37895;53.240;6.572;2024-03-07T08:06:09;105.72;;;64.05;;
51854;SDS011;37895;53.240;6.572;2024-03-07T08:08:35;91.05;;;59.08;;
51854;SDS011;37895;53.240;6.572;2024-03-07T08:11:01;107.82;;;59.08;;
51854;SDS011;37895;53.240;6.572;2024-03-07T08:13:27;81.10;;;54.90;;
51854;SDS011;37895;53.240;6.572;2024-03-07T08:15:52;81.65;;;53.67;;
51854;SDS011;37895;53.240;6.572;2024-03-07T08:18:21;67.93;;;49.30;;
51854;SDS011;37895;53.240;6.572;2024-03-07T08:20:46;82.93;;;51.10;;
51854;SDS011;37895;53.240;6.572;2024-03-07T08:23:12;72.82;;;52.08;;
51854;SDS011;37895;53.240;6.572;2024-03-07T08:25:39;61.03;;;47.30;;
51854;SDS011;37895;53.240;6.572;2024-03-07T08:28:08;66.45;;;47.45;;
51854;SDS011;37895;53.240;6.572;2024-03-07T08:30:33;59.33;;;44.72;;
51854;SDS011;37895;53.240;6.572;2024-03-07T08:35:28;60.35;;;43.42;;
51854;SDS011;37895;53.240;6.572;2024-03-07T08:40:24;57.37;;;43.23;;
51854;SDS011;37895;53.240;6.572;2024-03-07T08:42:52;53.45;;;42.88;;
51854;SDS011;37895;53.240;6.572;2024-03-07T08:45:22;55.22;;;41.42;;
51854;SDS011;37895;53.240;6.572;2024-03-07T08:47:48;54.95;;;42.22;;
51854;SDS011;37895;53.240;6.572;2024-03-07T08:50:15;63.05;;;44.67;;
51854;SDS011;37895;53.240;6.572;2024-03-07T08:52:43;54.97;;;40.55;;
51854;SDS011;37895;53.240;6.572;2024-03-07T08:55:24;53.95;;;40.97;;
51854;SDS011;37895;53.240;6.572;2024-03-07T08:57:50;51.47;;;40.70;;
51854;SDS011;37895;53.240;6.572;2024-03-07T09:00:17;51.20;;;38.47;;
51854;SDS011;37895;53.240;6.572;2024-03-07T09:05:35;47.40;;;37.75;;
51854;SDS011;37895;53.240;6.572;2024-03-07T09:08:01;46.80;;;35.10;;
51854;SDS011;37895;53.240;6.572;2024-03-07T09:10:28;48.55;;;38.25;;
51854;SDS011;37895;53.240;6.572;2024-03-07T09:12:56;52.33;;;37.55;;
51854;SDS011;37895;53.240;6.572;2024-03-07T09:15:22;52.13;;;40.35;;
51854;SDS011;37895;53.240;6.572;2024-03-07T09:17:48;50.03;;;38.80;;
51854;SDS011;37895;53.240;6.572;2024-03-07T09:20:14;50.05;;;38.67;;
51854;SDS011;37895;53.240;6.572;2024-03-07T09:22:43;51.42;;;39.33;;
51854;SDS011;37895;53.240;6.572;2024-03-07T09:25:09;49.28;;;38.00;;
51854;SDS011;37895;53.240;6.572;2024-03-07T09:27:37;47.75;;;37.55;;
51854;SDS011;37895;53.240;6.572;2024-03-07T09:30:05;45.85;;;37.63;;
51854;SDS011;37895;53.240;6.572;2024-03-07T09:32:40;48.65;;;37.45;;
51854;SDS011;37895;53.240;6.572;2024-03-07T09:35:09;45.17;;;35.45;;
51854;SDS011;37895;53.240;6.572;2024-03-07T09:37:37;44.88;;;34.65;;
51854;SDS011;37895;53.240;6.572;2024-03-07T09:40:06;45.15;;;34.90;;
51854;SDS011;37895;53.240;6.572;2024-03-07T09:42:34;40.45;;;33.35;;
51854;SDS011;37895;53.240;6.572;2024-03-07T09:45:02;45.15;;;34.00;;
51854;SDS011;37895;53.240;6.572;2024-03-07T09:47:30;38.90;;;32.13;;
51854;SDS011;37895;53.240;6.572;2024-03-07T09:49:56;42.40;;;33.58;;
51854;SDS011;37895;53.240;6.572;2024-03-07T09:54:49;39.47;;;33.17;;
51854;SDS011;37895;53.240;6.572;2024-03-07T09:57:14;42.10;;;33.83;;
51854;SDS011;37895;53.240;6.572;2024-03-07T09:59:40;36.83;;;29.98;;
51854;SDS011;37895;53.240;6.572;2024-03-07T10:02:09;39.47;;;31.90;;
51854;SDS011;37895;53.240;6.572;2024-03-07T10:04:59;37.25;;;30.20;;
51854;SDS011;37895;53.240;6.572;2024-03-07T10:07:24;40.65;;;32.78;;
51854;SDS011;37895;53.240;6.572;2024-03-07T10:09:50;40.13;;;32.67;;
51854;SDS011;37895;53.240;6.572;2024-03-07T10:12:21;37.65;;;31.52;;
51854;SDS011;37895;53.240;6.572;2024-03-07T10:14:50;38.25;;;30.67;;
51854;SDS011;37895;53.240;6.572;2024-03-07T10:17:23;37.63;;;30.75;;
51854;SDS011;37895;53.240;6.572;2024-03-07T10:19:51;35.20;;;30.77;;
51854;SDS011;37895;53.240;6.572;2024-03-07T10:22:18;38.85;;;30.92;;
51854;SDS011;37895;53.240;6.572;2024-03-07T10:24:51;38.63;;;30.75;;
51854;SDS011;37895;53.240;6.572;2024-03-07T10:27:19;37.88;;;30.70;;
51854;SDS011;37895;53.240;6.572;2024-03-07T10:29:48;34.88;;;29.17;;
51854;SDS011;37895;53.240;6.572;2024-03-07T10:32:20;35.72;;;29.38;;
51854;SDS011;37895;53.240;6.572;2024-03-07T10:34:51;37.35;;;30.67;;
51854;SDS011;37895;53.240;6.572;2024-03-07T10:37:18;37.33;;;30.08;;
51854;SDS011;37895;53.240;6.572;2024-03-07T10:39:47;34.85;;;29.23;;
51854;SDS011;37895;53.240;6.572;2024-03-07T10:42:16;40.05;;;32.95;;
51854;SDS011;37895;53.240;6.572;2024-03-07T10:44:44;38.00;;;30.15;;
51854;SDS011;37895;53.240;6.572;2024-03-07T10:47:17;36.55;;;31.02;;
51854;SDS011;37895;53.240;6.572;2024-03-07T10:49:57;35.92;;;30.25;;
51854;SDS011;37895;53.240;6.572;2024-03-07T10:52:40;39.38;;;31.05;;
51854;SDS011;37895;53.240;6.572;2024-03-07T10:58:14;39.17;;;29.25;;
51854;SDS011;37895;53.240;6.572;2024-03-07T11:00:49;37.72;;;30.92;;
51854;SDS011;37895;53.240;6.572;2024-03-07T11:03:16;35.72;;;31.13;;
51854;SDS011;37895;53.240;6.572;2024-03-07T11:05:45;36.25;;;30.02;;
51854;SDS011;37895;53.240;6.572;2024-03-07T11:08:11;36.17;;;31.27;;
51854;SDS011;37895;53.240;6.572;2024-03-07T11:10:37;36.28;;;30.83;;
51854;SDS011;37895;53.240;6.572;2024-03-07T11:13:04;35.30;;;28.70;;
51854;SDS011;37895;53.240;6.572;2024-03-07T11:15:32;40.35;;;31.70;;
51854;SDS011;37895;53.240;6.572;2024-03-07T11:17:58;35.00;;;29.02;;
51854;SDS011;37895;53.240;6.572;2024-03-07T11:22:52;36.33;;;29.73;;
51854;SDS011;37895;53.240;6.572;2024-03-07T11:25:21;37.13;;;29.88;;
51854;SDS011;37895;53.240;6.572;2024-03-07T11:28:05;32.65;;;28.15;;
51854;SDS011;37895;53.240;6.572;2024-03-07T11:30:31;36.13;;;27.48;;
51854;SDS011;37895;53.240;6.572;2024-03-07T11:32:57;36.13;;;28.80;;
51854;SDS011;37895;53.240;6.572;2024-03-07T11:35:33;34.65;;;28.10;;
51854;SDS011;37895;53.240;6.572;2024-03-07T11:38:02;35.55;;;28.45;;
51854;SDS011;37895;53.240;6.572;2024-03-07T11:42:57;37.67;;;29.10;;
51854;SDS011;37895;53.240;6.572;2024-03-07T11:45:26;39.53;;;29.77;;
51854;SDS011;37895;53.240;6.572;2024-03-07T11:47:57;34.40;;;28.17;;
51854;SDS011;37895;53.240;6.572;2024-03-07T11:50:32;37.30;;;29.35;;
51854;SDS011;37895;53.240;6.572;2024-03-07T11:53:00;35.53;;;29.67;;
51854;SDS011;37895;53.240;6.572;2024-03-07T11:55:27;35.17;;;28.13;;
51854;SDS011;37895;53.240;6.572;2024-03-07T11:58:10;35.20;;;28.25;;
51854;SDS011;37895;53.240;6.572;2024-03-07T12:00:43;36.43;;;28.60;;
51854;SDS011;37895;53.240;6.572;2024-03-07T12:03:15;34.67;;;29.08;;
51854;SDS011;37895;53.240;6.572;2024-03-07T12:05:50;34.30;;;27.00;;
51854;SDS011;37895;53.240;6.572;2024-03-07T12:08:17;32.15;;;26.48;;
51854;SDS011;37895;53.240;6.572;2024-03-07T12:10:47;31.02;;;26.02;;
51854;SDS011;37895;53.240;6.572;2024-03-07T12:13:14;33.92;;;26.38;;
51854;SDS011;37895;53.240;6.572;2024-03-07T12:15:44;30.42;;;25.05;;
51854;SDS011;37895;53.240;6.572;2024-03-07T12:18:11;29.73;;;25.73;;
51854;SDS011;37895;53.240;6.572;2024-03-07T12:20:42;31.70;;;27.10;;
51854;SDS011;37895;53.240;6.572;2024-03-07T12:23:12;30.27;;;24.80;;
51854;SDS011;37895;53.240;6.572;2024-03-07T12:25:38;30.25;;;25.10;;
51854;SDS011;37895;53.240;6.572;2024-03-07T12:28:11;30.75;;;25.02;;
51854;SDS011;37895;53.240;6.572;2024-03-07T12:30:54;27.55;;;24.58;;
51854;SDS011;37895;53.240;6.572;2024-03-07T12:33:21;31.48;;;25.83;;
51854;SDS011;37895;53.240;6.572;2024-03-07T12:35:50;28.08;;;23.85;;
51854;SDS011;37895;53.240;6.572;2024-03-07T12:38:19;29.63;;;22.83;;
51854;SDS011;37895;53.240;6.572;2024-03-07T12:40:46;30.17;;;24.75;;
51854;SDS011;37895;53.240;6.572;2024-03-07T12:43:19;26.70;;;23.75;;
51854;SDS011;37895;53.240;6.572;2024-03-07T12:45:49;30.00;;;24.88;;
51854;SDS011;37895;53.240;6.572;2024-03-07T12:48:16;29.38;;;25.02;;
51854;SDS011;37895;53.240;6.572;2024-03-07T12:50:47;28.85;;;25.10;;
51854;SDS011;37895;53.240;6.572;2024-03-07T12:53:18;29.33;;;25.20;;
51854;SDS011;37895;53.240;6.572;2024-03-07T12:55:44;28.17;;;23.27;;
51854;SDS011;37895;53.240;6.572;2024-03-07T12:58:11;27.85;;;24.08;;
51854;SDS011;37895;53.240;6.572;2024-03-07T13:00:37;26.98;;;23.52;;
51854;SDS011;37895;53.240;6.572;2024-03-07T13:03:04;26.75;;;23.40;;
51854;SDS011;37895;53.240;6.572;2024-03-07T13:05:30;25.65;;;22.15;;
51854;SDS011;37895;53.240;6.572;2024-03-07T13:07:56;26.17;;;22.67;;
51854;SDS011;37895;53.240;6.572;2024-03-07T13:10:22;25.15;;;22.48;;
51854;SDS011;37895;53.240;6.572;2024-03-07T13:12:48;25.92;;;22.48;;
51854;SDS011;37895;53.240;6.572;2024-03-07T13:17:40;28.02;;;24.67;;
51854;SDS011;37895;53.240;6.572;2024-03-07T13:20:10;25.90;;;23.10;;
51854;SDS011;37895;53.240;6.572;2024-03-07T13:22:37;25.50;;;21.95;;
51854;SDS011;37895;53.240;6.572;2024-03-07T13:25:14;25.15;;;21.17;;
51854;SDS011;37895;53.240;6.572;2024-03-07T13:30:50;24.45;;;21.20;;
51854;SDS011;37895;53.240;6.572;2024-03-07T13:33:19;24.85;;;20.73;;
51854;SDS011;37895;53.240;6.572;2024-03-07T13:35:45;24.30;;;19.95;;
51854;SDS011;37895;53.240;6.572;2024-03-07T13:38:11;22.48;;;19.83;;
51854;SDS011;37895;53.240;6.572;2024-03-07T13:40:38;29.77;;;20.73;;
51854;SDS011;37895;53.240;6.572;2024-03-07T13:43:04;24.90;;;21.65;;
51854;SDS011;37895;53.240;6.572;2024-03-07T13:45:31;22.67;;;20.27;;
51854;SDS011;37895;53.240;6.572;2024-03-07T13:48:04;25.98;;;21.80;;
51854;SDS011;37895;53.240;6.572;2024-03-07T13:50:35;24.95;;;22.13;;
51854;SDS011;37895;53.240;6.572;2024-03-07T13:53:09;23.52;;;20.05;;
51854;SDS011;37895;53.240;6.572;2024-03-07T13:55:46;25.85;;;21.23;;
51854;SDS011;37895;53.240;6.572;2024-03-07T13:58:16;23.10;;;20.25;;
51854;SDS011;37895;53.240;6.572;2024-03-07T14:03:52;26.00;;;20.98;;
51854;SDS011;37895;53.240;6.572;2024-03-07T14:06:42;24.52;;;21.40;;
51854;SDS011;37895;53.240;6.572;2024-03-07T14:09:24;26.15;;;21.23;;
51854;SDS011;37895;53.240;6.572;2024-03-07T14:12:14;28.60;;;23.05;;
51854;SDS011;37895;53.240;6.572;2024-03-07T14:27:04;26.25;;;21.13;;
51854;SDS011;37895;53.240;6.572;2024-03-07T14:32:15;24.02;;;21.42;;
51854;SDS011;37895;53.240;6.572;2024-03-07T14:37:52;25.33;;;21.13;;
51854;SDS011;37895;53.240;6.572;2024-03-07T14:40:21;25.08;;;22.30;;
51854;SDS011;37895;53.240;6.572;2024-03-07T14:42:47;27.50;;;23.38;;
51854;SDS011;37895;53.240;6.572;2024-03-07T14:45:21;27.05;;;23.88;;
51854;SDS011;37895;53.240;6.572;2024-03-07T14:47:53;25.77;;;21.85;;
51854;SDS011;37895;53.240;6.572;2024-03-07T14:52:46;23.60;;;21.05;;
51854;SDS011;37895;53.240;6.572;2024-03-07T14:55:13;24.85;;;21.25;;
51854;SDS011;37895;53.240;6.572;2024-03-07T14:57:39;27.67;;;23.05;;
51854;SDS011;37895;53.240;6.572;2024-03-07T15:00:06;24.27;;;21.58;;
51854;SDS011;37895;53.240;6.572;2024-03-07T15:02:47;26.73;;;22.40;;
51854;SDS011;37895;53.240;6.572;2024-03-07T15:05:14;26.40;;;22.95;;
51854;SDS011;37895;53.240;6.572;2024-03-07T15:07:41;28.90;;;23.77;;
51854;SDS011;37895;53.240;6.572;2024-03-07T15:10:10;27.90;;;23.77;;
51854;SDS011;37895;53.240;6.572;2024-03-07T15:12:44;28.65;;;24.77;;
51854;SDS011;37895;53.240;6.572;2024-03-07T15:15:12;26.42;;;23.17;;
51854;SDS011;37895;53.240;6.572;2024-03-07T15:17:39;27.98;;;24.33;;
51854;SDS011;37895;53.240;6.572;2024-03-07T15:20:07;26.08;;;22.48;;
51854;SDS011;37895;53.240;6.572;2024-03-07T15:22:40;27.42;;;23.98;;
51854;SDS011;37895;53.240;6.572;2024-03-07T15:25:12;29.15;;;24.20;;
51854;SDS011;37895;53.240;6.572;2024-03-07T15:27:41;27.52;;;24.52;;
51854;SDS011;37895;53.240;6.572;2024-03-07T15:30:07;30.05;;;25.27;;
51854;SDS011;37895;53.240;6.572;2024-03-07T15:32:39;29.17;;;24.13;;
51854;SDS011;37895;53.240;6.572;2024-03-07T15:35:09;28.55;;;24.17;;